Strona główna
METAR-TAF:

METAR-TAF

Lotnisko :

Port lotniczy Sabadell

Sabadell, Hiszpania

Szerokość geograficzna: 41-31N, Długość geograficzna: 002-06E, wysokość: 250 m

Aktualna obserwacja pogody

Raport powstał 36 minut temu, godzina 10:30 UTC
Wiatr 1 kt od wschód
Temperatura 13°C
Wilgotność 62%
Ciśnienie 1032 hPa
Widzialność 10 km lub więcej
Mało chmury na wysokości 3500 ft

METAR: LELL 181030Z 08001KT 9999 FEW035 13/06 Q1032

czas: 12:06 (11:06 UTC)

Prognoza

Raport powstał 3 godziny i 6 minut temu, godzina 08:00 UTC
Prognoza ważna od 18 godzina 09 UTC do 19 godzina 09 UTC
Wiatr 4 kt z kierunków zmiennych
Widzialność 10 km lub więcej
Mało chmury na wysokości 3000 ft

TAF: LELL 180800Z 1809/1909 VRB04KT 9999 FEW030 TX14/1813Z TN04/1907Z

Obserwacja i prognoza pogody dla ponad 4000 lotnisk (raport METAR i TAF).

Dostępne stacje oznaczono żółtymi i czerwonymi punktami na mapie.

Najedź kursorem aby zobaczyć nazwę stacji.

Kliknij aby zobaczyć obserwacje i prognozy pogody.

Aby zmienić mapę: kliknij na zielony przycisk z czarnym krzyżykiem, aby powiększyć; na zielony przycisk z myślnikiem, aby pomniejszyć; na zielone strzałki, aby przejść do map sąsiednich.


METAR-TAF: